Time;durP1;ratioP1;P1;durP2;ratioP2;P2;SDS_P1;SDS_P2;PMS_P1;PMS_P2;Temp;Humidity;BMP_temperature;BMP_pressure;BME280_temperature;BME280_humidity;BME280_pressure;Samples;Min_cycle;Max_cycle;Signal;HPM_P1;HPM_P2
2022/07/27 00:01:55;;;;;;;11.93;10.68;;;;;;;24.43;58.98;94065.78;5070281;28;20212;-63
2022/07/27 00:04:21;;;;;;;11.27;10.02;;;;;;;24.34;59.40;94066.38;5070340;28;20525;-63
2022/07/27 00:06:47;;;;;;;11.15;10.13;;;;;;;24.31;59.72;94062.41;5070529;28;20213;-60
2022/07/27 00:09:12;;;;;;;12.20;11.10;;;;;;;24.22;59.61;94071.56;5052084;28;20612;-63
2022/07/27 00:11:38;;;;;;;12.35;11.05;;;;;;;24.07;60.32;94058.25;5070397;28;20257;-63
2022/07/27 00:14:03;;;;;;;11.88;10.68;;;;;;;23.98;60.65;94054.38;5070208;28;20255;-64
2022/07/27 00:16:29;;;;;;;12.25;10.80;;;;;;;23.93;61.22;94059.47;5069955;28;20293;-65
2022/07/27 00:18:54;;;;;;;11.32;10.30;;;;;;;23.72;62.13;94055.59;5070121;28;20205;-63
2022/07/27 00:21:20;;;;;;;12.40;11.15;;;;;;;23.75;62.38;94059.56;5070304;28;20208;-63
2022/07/27 00:23:45;;;;;;;13.30;11.30;;;;;;;23.97;61.53;94068.38;5052299;28;20203;-60
2022/07/27 00:26:11;;;;;;;12.35;11.15;;;;;;;23.91;61.59;94070.09;5068914;28;20200;-59
2022/07/27 00:28:36;;;;;;;12.30;11.07;;;;;;;23.91;62.06;94062.28;5072593;28;20292;-62
2022/07/27 00:31:02;;;;;;;12.18;10.95;;;;;;;24.14;61.36;94074.50;5072767;28;20224;-63
2022/07/27 00:33:28;;;;;;;11.60;10.50;;;;;;;23.98;61.53;94072.53;5055341;28;20705;-63
2022/07/27 00:35:53;;;;;;;12.07;10.98;;;;;;;23.93;62.31;94069.84;5055280;28;20263;-62
2022/07/27 00:38:18;;;;;;;11.88;10.77;;;;;;;23.98;61.80;94080.34;5073218;28;20291;-63
2022/07/27 00:40:44;;;;;;;12.65;10.48;;;;;;;24.14;61.26;94095.28;5073365;28;20693;-63
2022/07/27 00:43:09;;;;;;;11.82;10.32;;;;;;;24.11;60.89;94099.13;5073438;28;20176;-63
2022/07/27 00:45:35;;;;;;;12.48;10.73;;;;;;;24.18;61.18;94107.59;5073361;28;20214;-62
2022/07/27 00:48:00;;;;;;;11.93;10.70;;;;;;;24.02;62.75;94100.44;5073356;28;20187;-63
2022/07/27 00:50:26;;;;;;;11.52;10.43;;;;;;;24.04;62.83;94095.06;5073079;28;20244;-62
2022/07/27 00:52:52;;;;;;;11.68;10.55;;;;;;;24.06;62.97;94101.59;5073184;28;20264;-62
2022/07/27 00:55:17;;;;;;;14.27;10.98;;;;;;;24.12;61.83;94103.31;5073046;28;20275;-62
2022/07/27 00:57:43;;;;;;;12.30;11.10;;;;;;;24.15;62.16;94108.06;5073296;28;20656;-60
2022/07/27 01:00:09;;;;;;;12.18;10.60;;;;;;;24.16;62.41;94111.44;5072840;28;20185;-60
2022/07/27 01:02:35;;;;;;;13.00;11.52;;;;;;;24.36;62.29;94111.09;5072986;28;20193;-60
2022/07/27 01:05:00;;;;;;;12.35;11.15;;;;;;;24.32;62.20;94108.16;5072696;28;20189;-59
2022/07/27 01:07:26;;;;;;;14.10;11.57;;;;;;;24.07;63.18;94102.41;5072935;28;20196;-59
2022/07/27 01:09:57;;;;;;;13.35;11.77;;;;;;;24.14;62.33;94108.28;5072853;28;20211;-64
2022/07/27 01:12:30;;;;;;;12.80;11.50;;;;;;;24.14;61.26;94113.47;5072830;28;20209;-65
2022/07/27 01:14:57;;;;;;;12.00;10.80;;;;;;;23.92;62.60;94095.03;5072880;28;20189;-61
2022/07/27 01:17:24;;;;;;;12.63;11.15;;;;;;;23.61;64.56;94086.75;5054592;28;20212;-64
2022/07/27 01:19:49;;;;;;;15.65;11.20;;;;;;;23.72;63.78;94094.56;5072574;28;20272;-63
2022/07/27 01:22:16;;;;;;;15.20;10.95;;;;;;;23.82;63.21;94101.78;5072958;28;20288;-65
2022/07/27 01:24:41;;;;;;;11.80;10.60;;;;;;;23.78;63.39;94103.25;5054589;28;20185;-63
2022/07/27 01:27:07;;;;;;;12.40;11.00;;;;;;;23.54;64.05;94102.41;5072550;28;20720;-62
2022/07/27 01:29:33;;;;;;;14.30;11.57;;;;;;;23.57;63.46;94109.78;5072531;28;20177;-63
2022/07/27 01:31:59;;;;;;;13.77;10.60;;;;;;;23.73;61.87;94127.28;5072482;28;20284;-63
2022/07/27 01:34:24;;;;;;;11.93;10.77;;;;;;;23.65;62.47;94129.41;5072362;28;20677;-63
2022/07/27 01:36:50;;;;;;;11.43;10.32;;;;;;;23.45;62.53;94123.72;5072699;28;20251;-66
2022/07/27 01:39:17;;;;;;;11.52;10.32;;;;;;;23.41;62.61;94113.00;5072120;28;20205;-63
2022/07/27 01:41:43;;;;;;;12.13;9.70;;;;;;;23.34;63.05;94113.09;5072065;28;20232;-62
2022/07/27 01:44:09;;;;;;;11.73;10.63;;;;;;;23.32;62.29;94128.09;5072299;28;20215;-62
2022/07/27 01:46:35;;;;;;;11.90;10.55;;;;;;;23.14;62.72;94115.13;5072381;28;20212;-63
2022/07/27 01:49:00;;;;;;;13.43;10.82;;;;;;;23.04;63.78;94107.06;5072213;28;20189;-62
2022/07/27 01:51:26;;;;;;;10.93;9.93;;;;;;;22.98;64.06;94105.34;5071937;28;20208;-63
2022/07/27 01:53:51;;;;;;;12.68;11.38;;;;;;;22.97;64.45;94105.56;5072122;28;20191;-63
2022/07/27 01:56:17;;;;;;;15.25;10.77;;;;;;;23.02;64.59;94100.53;5071922;28;20208;-63
2022/07/27 01:58:42;;;;;;;11.45;10.45;;;;;;;23.03;64.82;94100.28;5071924;28;20212;-63
2022/07/27 02:01:08;;;;;;;12.50;11.18;;;;;;;23.18;64.06;94105.91;5072178;28;20219;-63
2022/07/27 02:03:34;;;;;;;12.20;10.43;;;;;;;23.08;64.07;94112.59;5071766;28;20192;-63
2022/07/27 02:06:00;;;;;;;12.25;11.05;;;;;;;23.12;64.23;94109.38;5071936;28;20698;-63
2022/07/27 02:08:25;;;;;;;12.70;11.40;;;;;;;22.66;66.46;94097.97;5071987;28;20264;-61
2022/07/27 02:13:35;;;;;;;12.82;11.20;;;;;;;22.63;67.40;94094.00;5072314;28;20226;-62
2022/07/27 02:16:00;;;;;;;12.13;10.93;;;;;;;22.57;67.69;94100.03;5071587;28;20208;-62
2022/07/27 02:18:27;;;;;;;14.52;12.05;;;;;;;22.71;67.32;94108.47;5071909;28;20253;-62
2022/07/27 02:20:52;;;;;;;12.00;10.85;;;;;;;22.74;67.16;94119.22;5071829;28;20212;-62
2022/07/27 02:23:18;;;;;;;12.50;11.05;;;;;;;22.85;67.20;94118.47;5071628;28;20184;-62
2022/07/27 02:25:43;;;;;;;12.38;11.00;;;;;;;22.95;66.50;94129.13;5053609;28;20643;-62
2022/07/27 02:28:09;;;;;;;12.00;10.45;;;;;;;22.92;65.84;94139.13;5071487;28;20267;-63
2022/07/27 02:30:34;;;;;;;13.25;11.38;;;;;;;22.86;67.12;94124.44;5071637;28;20209;-63
2022/07/27 02:33:00;;;;;;;12.23;10.93;;;;;;;22.85;67.13;94128.84;5071538;28;20185;-62
2022/07/27 02:35:26;;;;;;;12.70;11.38;;;;;;;22.72;67.22;94121.22;5071596;28;20678;-61
2022/07/27 02:37:51;;;;;;;12.80;11.60;;;;;;;22.87;66.40;94133.81;5071413;28;20216;-64
2022/07/27 02:40:17;;;;;;;12.13;10.82;;;;;;;22.76;66.99;94124.97;5071296;28;20184;-63
2022/07/27 02:42:43;;;;;;;14.52;11.38;;;;;;;22.78;66.33;94137.72;5071283;28;20196;-64
2022/07/27 02:45:09;;;;;;;14.80;11.50;;;;;;;22.57;67.03;94133.72;5071065;28;20708;-63
2022/07/27 02:47:34;;;;;;;15.60;11.80;;;;;;;22.62;67.14;94133.91;5071275;28;20181;-64
2022/07/27 02:50:01;;;;;;;12.30;11.00;;;;;;;22.69;65.95;94136.41;5070495;28;20177;-64
2022/07/27 02:52:26;;;;;;;12.27;10.98;;;;;;;22.38;68.12;94119.19;5071373;28;20251;-63
2022/07/27 02:54:52;;;;;;;12.25;11.07;;;;;;;22.43;68.72;94116.72;5071139;28;20656;-63
2022/07/27 02:57:17;;;;;;;12.07;10.40;;;;;;;22.63;66.23;94152.81;5053040;28;20216;-63
2022/07/27 02:59:43;;;;;;;12.45;10.85;;;;;;;22.49;67.67;94134.00;5071100;28;20169;-61
2022/07/27 03:02:08;;;;;;;14.90;10.88;;;;;;;22.51;66.14;94152.72;5070973;28;20204;-64
2022/07/27 03:04:34;;;;;;;14.05;10.82;;;;;;;22.34;67.26;94147.28;5071068;28;20177;-64
2022/07/27 03:06:59;;;;;;;11.52;10.45;;;;;;;22.36;67.75;94144.50;5071415;28;20244;-64
2022/07/27 03:09:25;;;;;;;12.43;11.07;;;;;;;22.48;66.76;94169.47;5070947;28;20238;-64
2022/07/27 03:11:50;;;;;;;12.57;11.27;;;;;;;22.49;66.77;94157.31;5071250;28;20215;-65
2022/07/27 03:14:16;;;;;;;13.25;10.80;;;;;;;22.34;67.59;94151.69;5071157;28;20189;-63
2022/07/27 03:16:41;;;;;;;13.38;10.07;;;;;;;22.43;67.12;94168.53;5053065;28;20599;-63
2022/07/27 03:19:06;;;;;;;11.40;10.23;;;;;;;22.41;67.95;94160.19;5070632;28;20682;-63
2022/07/27 03:21:32;;;;;;;12.15;10.90;;;;;;;22.56;67.56;94165.81;5070803;28;20216;-62
2022/07/27 03:23:57;;;;;;;14.45;10.77;;;;;;;22.45;67.82;94167.31;5070853;28;20176;-63
2022/07/27 03:26:23;;;;;;;11.55;10.40;;;;;;;22.48;67.78;94169.47;5070751;28;20220;-63
2022/07/27 03:28:48;;;;;;;11.30;10.13;;;;;;;22.45;67.89;94156.16;5052673;28;20226;-64
2022/07/27 03:31:14;;;;;;;12.00;10.80;;;;;;;21.94;69.60;94146.03;5070631;28;20217;-62
2022/07/27 03:33:40;;;;;;;11.80;10.40;;;;;;;22.00;69.90;94142.59;5070905;28;20784;-64
2022/07/27 03:36:06;;;;;;;14.23;11.15;;;;;;;21.84;70.35;94134.56;5052730;28;20227;-63
2022/07/27 03:38:31;;;;;;;18.08;10.65;;;;;;;21.99;69.71;94145.41;5070595;28;20291;-65
2022/07/27 03:40:57;;;;;;;11.48;10.38;;;;;;;21.98;69.45;94154.97;5070639;28;20687;-65
2022/07/27 03:43:22;;;;;;;12.70;10.60;;;;;;;21.84;70.36;94137.97;5070568;28;20558;-62
2022/07/27 03:45:48;;;;;;;11.00;9.90;;;;;;;22.04;69.17;94161.13;5052537;28;20204;-64
2022/07/27 03:48:13;;;;;;;14.15;11.05;;;;;;;22.03;67.91;94170.69;5070456;28;20616;-63
2022/07/27 03:50:38;;;;;;;12.65;11.05;;;;;;;21.86;70.00;94148.09;5070785;28;20212;-61
2022/07/27 03:53:04;;;;;;;13.13;11.25;;;;;;;22.07;68.18;94176.22;5070572;28;20673;-59
2022/07/27 03:55:30;;;;;;;12.52;10.07;;;;;;;22.09;67.80;94179.41;5070696;28;20553;-66
2022/07/27 03:57:56;;;;;;;12.45;10.57;;;;;;;22.35;67.72;94189.53;5070346;28;20212;-63
2022/07/27 04:00:22;;;;;;;12.05;10.30;;;;;;;22.30;67.27;94184.22;5052286;28;20217;-64
2022/07/27 04:02:48;;;;;;;13.43;10.75;;;;;;;22.45;67.00;94192.44;5071666;28;20575;-61
2022/07/27 04:05:13;;;;;;;13.40;10.93;;;;;;;22.43;66.58;94192.66;5073700;28;20181;-60
2022/07/27 04:07:39;;;;;;;12.55;10.57;;;;;;;22.48;66.86;94197.19;5073787;28;20188;-62
2022/07/27 04:10:06;;;;;;;10.75;9.75;;;;;;;22.46;67.49;94183.66;5073688;28;20189;-59
2022/07/27 04:12:35;;;;;;;13.70;10.48;;;;;;;22.43;68.43;94176.31;5072717;28;20185;-64
2022/07/27 04:15:00;;;;;;;11.70;10.50;;;;;;;22.45;71.31;94135.44;5073707;28;20219;-59
2022/07/27 04:17:25;;;;;;;14.80;10.55;;;;;;;22.70;73.30;94162.13;5073693;28;20245;-62
2022/07/27 04:19:51;;;;;;;13.20;10.25;;;;;;;23.04;72.24;94191.84;5073755;28;20260;-62
2022/07/27 04:22:16;;;;;;;12.00;10.43;;;;;;;23.42;71.92;94204.59;5055695;28;20649;-62
2022/07/27 04:24:42;;;;;;;12.95;10.13;;;;;;;23.72;70.62;94218.38;5073789;28;20218;-61
2022/07/27 04:27:08;;;;;;;13.77;9.75;;;;;;;23.99;68.08;94235.16;5073438;28;20209;-59
2022/07/27 04:29:33;;;;;;;19.58;10.18;;;;;;;24.21;65.62;94280.44;5073312;28;20570;-61
2022/07/27 04:31:59;;;;;;;15.68;11.30;;;;;;;24.39;61.87;94308.16;5073490;28;20589;-65
2022/07/27 04:34:24;;;;;;;11.77;10.65;;;;;;;24.11;64.52;94265.41;5073400;28;20296;-63
2022/07/27 04:36:50;;;;;;;15.95;10.68;;;;;;;24.05;65.26;94255.91;5055322;28;20295;-64
2022/07/27 04:39:15;;;;;;;12.02;10.73;;;;;;;23.87;66.17;94247.31;5073389;28;20295;-64
2022/07/27 04:41:41;;;;;;;13.27;9.88;;;;;;;23.91;65.09;94272.66;5073698;28;20209;-62
2022/07/27 04:44:07;;;;;;;10.50;9.50;;;;;;;23.84;65.54;94264.13;5073087;28;20195;-62
2022/07/27 04:46:32;;;;;;;10.85;9.82;;;;;;;23.90;65.56;94262.44;5072907;28;20208;-62
2022/07/27 04:48:58;;;;;;;14.05;10.15;;;;;;;23.99;65.00;94282.72;5073191;28;20221;-63
2022/07/27 04:51:23;;;;;;;13.27;10.07;;;;;;;23.86;66.97;94236.13;5072906;28;20211;-63
2022/07/27 04:53:49;;;;;;;14.55;10.88;;;;;;;23.96;67.17;94256.38;5055040;28;20284;-65
2022/07/27 04:56:14;;;;;;;14.85;10.13;;;;;;;23.90;68.54;94242.47;5073082;28;20296;-62
2022/07/27 04:58:40;;;;;;;13.13;9.75;;;;;;;24.07;65.40;94294.63;5073013;28;20292;-64
2022/07/27 05:01:05;;;;;;;11.90;10.35;;;;;;;23.98;65.97;94275.13;5073051;28;20321;-64
2022/07/27 05:03:31;;;;;;;12.82;10.05;;;;;;;23.93;65.93;94277.59;5072664;28;20604;-63
2022/07/27 05:05:56;;;;;;;10.90;9.05;;;;;;;23.94;67.34;94253.22;5072695;28;20221;-60
2022/07/27 05:08:22;;;;;;;11.45;9.70;;;;;;;23.91;66.38;94275.25;5072891;28;20193;-59
2022/07/27 05:10:47;;;;;;;11.98;10.55;;;;;;;24.04;68.59;94253.50;5054973;28;20201;-61
2022/07/27 05:13:13;;;;;;;20.48;14.40;;;;;;;24.24;72.88;94212.41;5072698;28;20271;-61
2022/07/27 05:15:39;;;;;;;11.88;10.25;;;;;;;24.53;66.87;94289.53;5072685;28;20216;-60
2022/07/27 05:18:05;;;;;;;12.07;10.68;;;;;;;24.61;67.61;94273.63;5072630;28;20212;-60
2022/07/27 05:20:30;;;;;;;13.50;11.00;;;;;;;24.71;66.49;94297.25;5072615;28;20624;-61
2022/07/27 05:22:56;;;;;;;16.40;12.40;;;;;;;24.87;64.86;94312.22;5072387;28;20189;-63
2022/07/27 05:25:24;;;;;;;13.02;11.63;;;;;;;24.67;66.62;94285.72;5072499;28;20205;-59
2022/07/27 05:27:51;;;;;;;17.10;12.70;;;;;;;24.56;68.02;94273.50;5070721;28;20185;-63
2022/07/27 05:30:17;;;;;;;23.30;17.70;;;;;;;24.55;66.93;94284.91;5070739;28;20189;-64
2022/07/27 05:32:42;;;;;;;16.25;13.85;;;;;;;24.36;67.91;94270.41;5072006;28;20188;-59
2022/07/27 05:35:08;;;;;;;22.77;14.07;;;;;;;24.21;68.54;94258.84;5072257;28;20267;-59
2022/07/27 05:37:33;;;;;;;14.05;12.52;;;;;;;23.99;69.31;94245.56;5072248;28;20600;-62
2022/07/27 05:39:59;;;;;;;19.85;14.30;;;;;;;23.96;69.30;94251.19;5072116;28;20181;-61
2022/07/27 05:42:24;;;;;;;16.75;14.02;;;;;;;23.94;69.62;94242.81;5072023;28;20221;-62
2022/07/27 05:44:54;;;;;;;20.38;14.43;;;;;;;23.90;69.73;94242.47;5054216;28;20267;-60
2022/07/27 05:47:20;;;;;;;16.85;13.50;;;;;;;23.88;70.12;94239.31;5072444;28;20635;-61
2022/07/27 05:49:46;;;;;;;16.95;13.60;;;;;;;23.98;68.39;94262.13;5072133;28;20181;-60
2022/07/27 05:52:11;;;;;;;15.90;13.80;;;;;;;24.00;69.31;94252.31;5072464;28;20216;-61
2022/07/27 05:54:37;;;;;;;16.17;12.95;;;;;;;23.91;70.20;94244.06;5072245;28;20189;-60
2022/07/27 05:57:02;;;;;;;17.23;13.73;;;;;;;23.89;70.44;94240.09;5072388;28;20208;-62
2022/07/27 05:59:30;;;;;;;16.88;13.27;;;;;;;23.90;71.49;94231.28;5072062;28;20204;-61
2022/07/27 06:01:57;;;;;;;18.83;13.45;;;;;;;24.19;69.83;94261.69;5071865;28;20236;-62
2022/07/27 06:04:23;;;;;;;16.63;12.68;;;;;;;24.15;71.59;94237.16;5053456;28;20184;-62
2022/07/27 06:09:33;;;;;;;15.82;12.75;;;;;;;24.34;70.62;94248.28;5071826;28;20183;-60
2022/07/27 06:11:58;;;;;;;19.77;13.02;;;;;;;24.47;68.46;94274.84;5071493;28;20705;-58
2022/07/27 06:14:24;;;;;;;21.45;13.45;;;;;;;24.61;68.00;94285.81;5071837;28;20690;-62
2022/07/27 06:16:49;;;;;;;14.15;12.32;;;;;;;24.45;69.88;94258.69;5071934;28;20662;-63
2022/07/27 06:19:15;;;;;;;16.23;13.15;;;;;;;24.54;69.83;94249.53;5071863;28;20674;-62
2022/07/27 06:21:41;;;;;;;18.35;12.65;;;;;;;24.73;69.09;94258.84;5070345;28;20311;-62
2022/07/27 06:24:06;;;;;;;14.05;11.73;;;;;;;24.87;68.34;94280.22;5071766;28;20189;-60
2022/07/27 06:26:38;;;;;;;15.80;12.90;;;;;;;25.10;67.25;94292.41;5070469;28;20599;-62
2022/07/27 06:29:03;;;;;;;13.90;11.70;;;;;;;25.25;67.15;94293.53;5071340;28;20200;-59
2022/07/27 06:31:29;;;;;;;16.17;11.50;;;;;;;25.21;68.13;94282.00;5071680;28;20197;-63
2022/07/27 06:33:56;;;;;;;13.00;10.90;;;;;;;25.32;66.06;94303.81;5053486;28;20200;-63
2022/07/27 06:36:22;;;;;;;12.30;10.57;;;;;;;25.32;66.12;94303.81;5070503;28;20216;-63
2022/07/27 06:38:48;;;;;;;13.70;9.88;;;;;;;25.42;66.22;94311.88;5071430;28;20204;-64
2022/07/27 06:41:13;;;;;;;18.20;9.63;;;;;;;25.55;64.79;94335.84;5071484;28;20216;-64
2022/07/27 06:43:39;;;;;;;12.75;9.00;;;;;;;25.70;64.73;94330.97;5071349;28;20560;-62
2022/07/27 06:46:06;;;;;;;13.20;7.55;;;;;;;25.84;63.86;94335.94;5071433;28;20243;-64
2022/07/27 06:48:32;;;;;;;11.30;8.02;;;;;;;25.92;63.54;94346.75;5053714;28;20650;-60
2022/07/27 06:50:58;;;;;;;13.73;8.02;;;;;;;25.96;62.43;94352.31;5071387;28;20233;-61
2022/07/27 06:53:25;;;;;;;15.48;8.73;;;;;;;26.19;61.58;94367.88;5071091;28;20192;-62
2022/07/27 06:55:51;;;;;;;10.82;7.07;;;;;;;26.05;62.95;94330.88;5071308;28;20212;-65
2022/07/27 06:58:18;;;;;;;10.75;7.20;;;;;;;25.97;63.19;94333.84;5070956;28;20242;-65
2022/07/27 07:00:43;;;;;;;11.40;7.05;;;;;;;26.07;62.97;94333.25;5071039;28;20209;-64
2022/07/27 07:03:10;;;;;;;14.00;7.07;;;;;;;26.10;62.50;94335.41;5071209;28;20564;-65
2022/07/27 07:05:42;;;;;;;8.15;7.35;;;;;;;26.31;61.76;94345.16;5071168;28;20217;-63
2022/07/27 07:08:10;;;;;;;8.75;6.72;;;;;;;26.37;61.39;94350.25;5053127;28;20200;-63
2022/07/27 07:10:40;;;;;;;17.67;8.68;;;;;;;26.54;61.47;94342.47;5071025;28;20221;-63
2022/07/27 07:13:06;;;;;;;10.68;7.47;;;;;;;26.51;60.54;94353.34;5070994;28;20267;-63
2022/07/27 07:15:33;;;;;;;14.32;8.90;;;;;;;26.71;61.46;94332.84;5070700;28;20208;-63
2022/07/27 07:17:58;;;;;;;15.35;7.75;;;;;;;26.78;62.37;94324.88;5071072;28;20216;-64
2022/07/27 07:20:23;;;;;;;18.35;7.60;;;;;;;26.76;60.31;94358.22;5052780;28;20706;-64
2022/07/27 07:22:49;;;;;;;11.55;7.97;;;;;;;26.74;60.21;94349.84;5070921;28;20185;-60
2022/07/27 07:25:15;;;;;;;13.48;7.75;;;;;;;26.87;60.43;94359.97;5071040;28;20592;-62
2022/07/27 07:27:41;;;;;;;11.35;7.68;;;;;;;26.60;60.33;94350.13;5052837;28;20274;-61
2022/07/27 07:30:07;;;;;;;14.88;8.02;;;;;;;26.50;60.90;94336.13;5053041;28;20192;-60
2022/07/27 07:32:33;;;;;;;12.07;7.90;;;;;;;26.39;60.67;94340.38;5070674;28;20180;-63
2022/07/27 07:34:58;;;;;;;10.68;7.80;;;;;;;26.15;61.13;94323.25;5070455;28;20207;-69
2022/07/27 07:37:24;;;;;;;9.93;7.68;;;;;;;26.26;60.17;94347.69;5073050;28;20805;-60
2022/07/27 07:39:50;;;;;;;9.15;7.30;;;;;;;26.25;60.14;94338.28;5074285;28;20184;-62
2022/07/27 07:42:16;;;;;;;12.50;8.15;;;;;;;26.23;60.17;94341.13;5074428;28;20216;-64
2022/07/27 07:44:48;;;;;;;13.82;8.18;;;;;;;26.35;59.57;94348.88;5056096;28;20548;-63
2022/07/27 07:47:13;;;;;;;11.65;7.93;;;;;;;26.50;58.67;94364.81;5074138;28;20633;-59
2022/07/27 07:49:39;;;;;;;14.27;9.32;;;;;;;26.47;58.41;94365.28;5039647;28;20223;-63
2022/07/27 07:52:05;;;;;;;17.05;7.80;;;;;;;26.60;58.02;94370.22;5056130;28;20209;-65
2022/07/27 07:54:30;;;;;;;15.75;8.15;;;;;;;26.98;57.42;94383.41;5074001;28;20203;-62
2022/07/27 07:56:56;;;;;;;14.05;8.57;;;;;;;27.24;56.94;94376.75;5073753;28;20698;-63
2022/07/27 07:59:21;;;;;;;12.77;7.97;;;;;;;27.27;55.30;94418.06;5073951;28;20204;-63
2022/07/27 08:01:46;;;;;;;11.90;8.13;;;;;;;26.96;55.70;94401.13;5074116;28;20244;-61
2022/07/27 08:04:13;;;;;;;10.38;7.75;;;;;;;27.00;54.98;94419.69;5073785;28;20661;-65
2022/07/27 08:06:39;;;;;;;8.63;7.22;;;;;;;27.18;55.31;94398.56;5074028;28;20219;-65
2022/07/27 08:09:05;;;;;;;13.38;7.22;;;;;;;27.59;54.87;94402.59;5073912;28;20585;-65
2022/07/27 08:11:30;;;;;;;13.23;8.43;;;;;;;27.92;54.88;94400.69;5055947;28;20792;-64
2022/07/27 08:13:56;;;;;;;17.95;8.75;;;;;;;27.92;54.23;94415.56;5074015;28;20650;-64
2022/07/27 08:16:22;;;;;;;11.23;7.10;;;;;;;27.77;51.34;94457.22;5073655;28;20208;-62
2022/07/27 08:18:47;;;;;;;7.80;7.10;;;;;;;27.68;51.70;94453.41;5055516;28;20212;-63
2022/07/27 08:21:12;;;;;;;10.70;7.20;;;;;;;27.75;52.23;94433.94;5073757;28;20216;-65
2022/07/27 08:23:38;;;;;;;13.55;7.65;;;;;;;28.17;51.45;94449.94;5073554;28;20268;-63
2022/07/27 08:26:03;;;;;;;14.82;7.53;;;;;;;28.07;48.68;94489.03;5073597;28;20224;-63
2022/07/27 08:28:29;;;;;;;10.85;7.82;;;;;;;28.02;49.50;94462.78;5073428;28;20276;-65
2022/07/27 08:30:54;;;;;;;10.52;7.30;;;;;;;28.21;50.74;94438.75;5073748;28;20212;-63
2022/07/27 08:33:20;;;;;;;10.93;7.40;;;;;;;28.34;49.27;94460.34;5055350;28;20200;-63
2022/07/27 08:35:45;;;;;;;13.10;7.68;;;;;;;28.44;48.51;94476.94;5073422;28;20208;-61
2022/07/27 08:38:11;;;;;;;8.68;6.88;;;;;;;28.60;48.11;94475.31;5073146;28;20209;-60
2022/07/27 08:40:38;;;;;;;8.82;7.55;;;;;;;29.08;49.51;94428.16;5073381;28;20705;-62
2022/07/27 08:43:04;;;;;;;11.88;7.82;;;;;;;29.21;49.62;94440.09;5073341;28;20203;-60
2022/07/27 08:45:30;;;;;;;16.17;7.45;;;;;;;29.42;47.54;94479.28;5073141;28;20204;-62
2022/07/27 08:47:56;;;;;;;15.07;7.10;;;;;;;29.36;46.33;94495.19;5072501;28;20188;-61
2022/07/27 08:50:22;;;;;;;13.43;7.85;;;;;;;29.23;46.39;94482.53;5073314;28;20234;-62
2022/07/27 08:53:07;;;;;;;11.50;7.32;;;;;;;29.26;46.86;94459.25;5073002;28;20185;-63
2022/07/27 08:55:38;;;;;;;11.65;7.47;;;;;;;29.45;45.57;94489.25;5073179;28;20205;-62
2022/07/27 08:58:04;;;;;;;12.32;7.22;;;;;;;29.81;45.34;94488.53;5073059;28;20698;-62
2022/07/27 09:00:31;;;;;;;11.00;7.45;;;;;;;29.91;46.57;94460.78;5073082;28;20221;-64
2022/07/27 09:02:57;;;;;;;8.27;7.43;;;;;;;30.10;45.20;94478.44;5080513;22;20293;-64
2022/07/27 09:05:23;;;;;;;9.07;7.45;;;;;;;30.18;45.31;94483.22;5073082;28;20216;-63
2022/07/27 09:07:49;;;;;;;11.38;7.75;;;;;;;30.48;44.49;94488.63;5073015;28;20223;-62
2022/07/27 09:10:33;;;;;;;12.20;7.05;;;;;;;30.56;43.50;94508.38;5072980;28;20185;-66
2022/07/27 09:12:59;;;;;;;12.02;7.40;;;;;;;30.47;41.28;94528.25;5072953;28;20569;-62
2022/07/27 09:15:25;;;;;;;10.52;7.35;;;;;;;30.57;43.17;94483.69;5072648;28;20205;-65
2022/07/27 09:17:51;;;;;;;13.00;7.20;;;;;;;30.69;43.77;94460.63;5072821;28;20201;-63
2022/07/27 09:20:19;;;;;;;9.38;7.25;;;;;;;30.95;43.74;94456.25;5054684;28;20234;-64
2022/07/27 09:22:46;;;;;;;14.75;8.43;;;;;;;30.87;40.41;94525.81;5072596;28;20197;-63
2022/07/27 09:25:16;;;;;;;11.23;7.80;;;;;;;31.08;42.38;94477.53;5072635;28;20212;-64
2022/07/27 09:27:44;;;;;;;12.68;7.65;;;;;;;31.02;41.96;94473.34;5072430;28;20207;-65
2022/07/27 09:30:12;;;;;;;8.68;7.80;;;;;;;31.46;41.74;94478.91;5054396;28;20188;-61
2022/07/27 09:33:01;;;;;;;8.20;7.40;;;;;;;32.05;41.94;94461.50;5072535;28;20215;-63
2022/07/27 09:35:35;;;;;;;10.98;7.43;;;;;;;32.08;36.41;94550.44;5072420;28;20204;-64
2022/07/27 09:38:21;;;;;;;11.00;6.90;;;;;;;32.09;39.43;94467.03;5072631;28;20251;-68
2022/07/27 09:40:56;;;;;;;11.98;7.00;;;;;;;31.89;38.76;94465.22;5079682;22;20216;-63
2022/07/27 09:43:22;;;;;;;8.27;7.40;;;;;;;31.41;39.05;94450.00;5072466;28;20189;-64
2022/07/27 09:45:47;;;;;;;9.48;7.60;;;;;;;31.24;37.54;94487.03;5072202;28;20222;-63
2022/07/27 09:48:16;;;;;;;8.32;7.28;;;;;;;31.78;38.27;94462.84;5072431;28;20690;-63
2022/07/27 09:50:46;;;;;;;9.90;7.45;;;;;;;31.97;39.23;94434.97;5071964;28;20217;-61
2022/07/27 09:53:13;;;;;;;13.40;7.72;;;;;;;32.26;39.81;94428.03;5072202;28;20663;-61
2022/07/27 09:55:40;;;;;;;10.23;7.60;;;;;;;32.52;39.48;94439.25;5079381;22;20239;-61
2022/07/27 09:58:06;;;;;;;14.05;7.53;;;;;;;32.37;38.19;94445.34;5071947;28;20304;-61
2022/07/27 10:00:31;;;;;;;11.57;7.70;;;;;;;32.09;37.55;94453.88;5070393;28;20296;-64
2022/07/27 10:02:58;;;;;;;8.27;7.47;;;;;;;32.72;38.45;94432.06;5072016;28;20252;-65
2022/07/27 10:05:23;;;;;;;9.40;7.32;;;;;;;33.00;36.32;94480.66;5071817;28;20208;-61
2022/07/27 10:07:51;;;;;;;12.57;7.53;;;;;;;33.14;35.36;94484.25;5072006;28;20546;-61
2022/07/27 10:10:16;;;;;;;11.15;7.88;;;;;;;33.27;34.65;94494.16;5071695;28;20189;-61
2022/07/27 10:12:43;;;;;;;10.50;8.00;;;;;;;33.12;35.00;94470.56;5071692;28;20189;-65
2022/07/27 10:15:10;;;;;;;9.00;7.57;;;;;;;33.16;34.46;94468.94;5071393;28;20201;-61
2022/07/27 10:17:37;;;;;;;7.47;6.65;;;;;;;33.37;35.69;94432.69;5071632;28;20223;-61
2022/07/27 10:20:07;;;;;;;8.43;7.43;;;;;;;33.50;35.00;94450.50;5071632;28;20673;-60
2022/07/27 10:22:49;;;;;;;9.10;8.20;;;;;;;33.86;35.59;94449.91;5071863;28;20185;-63
2022/07/27 10:25:14;;;;;;;11.80;7.55;;;;;;;34.24;35.21;94450.84;5071386;28;20193;-63
2022/07/27 10:27:40;;;;;;;12.20;7.40;;;;;;;34.21;33.06;94466.47;5053693;28;20560;-65
2022/07/27 10:30:06;;;;;;;11.23;8.18;;;;;;;34.48;32.82;94470.16;5071460;28;20181;-63
2022/07/27 10:32:33;;;;;;;9.38;8.25;;;;;;;34.50;31.35;94485.72;5053419;28;20205;-65
2022/07/27 10:35:02;;;;;;;8.50;7.35;;;;;;;34.06;31.90;94448.19;5071491;28;20311;-65
2022/07/27 10:37:29;;;;;;;11.50;7.95;;;;;;;34.65;32.73;94438.78;5071332;28;20579;-64
2022/07/27 10:42:49;;;;;;;12.30;7.75;;;;;;;35.14;31.67;94469.31;5071334;28;20587;-61
2022/07/27 10:45:17;;;;;;;9.48;8.05;;;;;;;35.38;30.60;94459.41;5071146;28;20189;-63
2022/07/27 10:47:49;;;;;;;12.80;7.78;;;;;;;34.57;31.81;94430.69;5071327;28;20581;-62
2022/07/27 10:50:14;;;;;;;10.65;8.10;;;;;;;34.55;31.89;94417.78;5053121;28;21780;-62
2022/07/27 10:52:51;;;;;;;14.98;8.23;;;;;;;35.20;31.84;94441.72;5071367;28;20269;-62
2022/07/27 10:55:33;;;;;;;9.73;7.03;;;;;;;35.51;30.51;94444.69;5071058;28;20661;-65
2022/07/27 10:58:02;;;;;;;9.88;7.47;;;;;;;35.34;30.58;94439.91;5071257;28;20236;-65
2022/07/27 11:00:49;;;;;;;10.65;7.85;;;;;;;35.50;29.25;94445.75;5053007;28;20216;-64
2022/07/27 11:03:24;;;;;;;12.63;8.20;;;;;;;35.57;29.67;94428.47;5071212;28;20189;-64
2022/07/27 11:06:07;;;;;;;9.52;7.22;;;;;;;35.17;29.23;94416.63;5071067;28;20624;-62
2022/07/27 11:08:44;;;;;;;14.60;7.90;;;;;;;34.82;30.19;94411.84;5070939;28;20323;-65
2022/07/27 11:11:14;;;;;;;11.52;7.80;;;;;;;35.16;30.92;94383.34;5070557;28;20224;-64
2022/07/27 11:13:40;;;;;;;12.63;7.75;;;;;;;35.44;29.09;94413.28;5070952;28;20193;-63
2022/07/27 11:16:08;;;;;;;8.68;7.25;;;;;;;34.94;29.39;94406.13;5070680;28;20697;-68
2022/07/27 11:18:36;;;;;;;11.50;7.97;;;;;;;35.39;29.64;94400.16;5070757;28;20248;-64
2022/07/27 11:21:24;;;;;;;8.75;7.95;;;;;;;35.92;29.91;94398.69;5052684;28;20718;-63
2022/07/27 11:23:56;;;;;;;9.32;7.88;;;;;;;36.03;29.92;94383.44;5071010;28;20207;-64
2022/07/27 11:26:23;;;;;;;11.25;7.93;;;;;;;35.82;28.55;94401.53;5070933;28;20212;-62
2022/07/27 11:28:50;;;;;;;8.77;7.68;;;;;;;36.34;29.88;94381.75;5070698;28;20196;-64